Flight Track Log - Related Links

Times and Time Zones

All times are in EDT time to prevent confusion due to time zone crossing. See the N983CA flight status page for this flight to view local times or setup timezone preferences in your user account.

Time Position Orientation Groundspeed Altitude Reporting Facility
EDT Latitude Longitude Course Direction KTS MPH feet Rate Location/Type
Sat 02:11:59 AM 33.9444 -118.4550 296° West 158 182 1,300  Level Los Angeles Center
Sat 02:13:00 AM 33.9358 -118.5222 261° West 201 231 3,300 2,311 Climbing Los Angeles Center
Sat 02:14:01 AM 33.9267 -118.6078 263° West 256 295 6,000 2,678 Climbing Los Angeles Center
Sat 02:15:01 AM 33.9139 -118.7061 261° West 275 316 8,700 2,331 Climbing Los Angeles Center
Sat 02:16:02 AM 33.9000 -118.7900 259° West 294 338 10,700 2,311 Climbing Los Angeles Center
Sat 02:17:00 AM 34.0722 -118.9054 296° West  Level FlightAware Approximate
Sat 02:17:03 AM 33.8817 -118.8906 258° West 308 354 13,400  Level Los Angeles Center
Sat 02:18:04 AM 33.8683 -118.9886 261° West 302 348 15,600 1,770 Climbing Los Angeles Center
Sat 02:19:05 AM 33.9372 -119.0381 329° Northwest 304 350 17,000 1,190 Climbing Los Angeles Center
Sat 02:20:05 AM 34.0436 -119.0725 345° North 330 380 18,000 893 Climbing Los Angeles Center
Sat 02:21:06 AM 34.1456 -119.0781 357° North 366 421 18,800 984 Climbing Los Angeles Center
Sat 02:22:07 AM 34.2503 -119.0739 North 374 430 20,000 1,082 Climbing Los Angeles Center
Sat 02:23:08 AM 34.3547 -119.0711 North 376 433 21,000 793 Climbing Los Angeles Center
Sat 02:24:08 AM 34.4622 -119.0678 North 384 442 21,600 496 Climbing Los Angeles Center
Sat 02:25:09 AM 34.5731 -119.0856 352° North 401 461 22,000 197 Climbing Los Angeles Center
Sat 02:26:10 AM 34.6842 -119.1094 350° North 404 465 22,000  Level Los Angeles Center
Sat 02:27:11 AM 34.7886 -119.1294 351° North 422 486 22,000  Level Los Angeles Center
Sat 02:28:11 AM 34.9264 -119.1578 350° North 422 486 22,000  Level Los Angeles Center
Sat 02:29:12 AM 35.0408 -119.1814 350° North 420 483 22,000 -49 Level Los Angeles Center
Sat 02:30:13 AM 35.1550 -119.2056 350° North 418 481 21,900  Descending Los Angeles Center
Sat 02:31:13 AM 35.2694 -119.2292 350° North 418 481 22,000 50 Climbing Los Angeles Center
Sat 02:32:14 AM 35.3839 -119.2525 351° North 418 481 22,000 -49 Level Los Angeles Center
Sat 02:33:15 AM 35.4978 -119.2769 350° North 417 480 21,900 -50 Descending Los Angeles Center
Sat 02:34:15 AM 35.6122 -119.3014 350° North 418 481 21,900 50 Level Los Angeles Center
Sat 02:35:16 AM 35.7244 -119.3250 350° North 414 476 22,000 49 Climbing Los Angeles Center
Sat 02:36:17 AM 35.8381 -119.3494 350° North 415 478 22,000 -590 Level Los Angeles Center
Sat 02:37:18 AM 35.9497 -119.3733 350° North 411 473 20,800 -2,083 Descending Los Angeles Center
Sat 02:38:18 AM 36.0581 -119.3986 349° North 403 464 17,800 -2,926 Descending Los Angeles Center
Sat 02:39:19 AM 36.1619 -119.4219 350° North 390 449 14,900 -2,777 Descending Los Angeles Center
Sat 02:40:19 AM 36.2617 -119.4433 350° North 380 437 12,200 -2,331 Descending Los Angeles Center
Sat 02:41:20 AM 36.3714 -119.4675 350° North 355 409 10,200 -1,918 Descending Los Angeles Center
Sat 02:42:21 AM 36.4431 -119.4883 347° North 307 353 8,300 -1,800 Descending Los Angeles Center
Sat 02:43:30 AM 36.5114 -119.5197 340° North 266 306 6,300 -2,047 Descending Oakland Center
Sat 02:44:30 AM 36.5753 -119.5508 339° North 250 288 3,900 -1,900 Descending Oakland Center
Sat 02:45:30 AM 36.6433 -119.5850 338° Northwest 237 273 2,500 -694 Descending Oakland Center
Sat 02:46:31 AM 36.6861 -119.6058 339° North 198 228 2,500 -298 Level Oakland Center
Sat 02:47:31 AM 36.7281 -119.6367 329° Northwest 143 165 1,900 -694 Descending Oakland Center
Sat 02:48:32 AM 36.7481 -119.6708 306° West 128 147 1,100 -694 Descending Oakland Center
Sat 02:49:32 AM 36.7681 -119.7061 305° West 126 145 500 -600 Descending Oakland Center

Login

Don't have an account? Register now (free) for customized features, flight alerts, and more!